Terminal Aerodrome Forecast
Issued by NWS

Home | Current Version | Previous Version | Text Only | Print | Product List | Glossary On
Versions: 1 2 3 4 5 6 7 8 9 10 11 12 13 14 15 16 17 18 19 20 21 22 23 24
000
FTUS44 KLIX 311100
TAFHUM
TAF
KHUM 311136Z 3112/0112 00000KT P6SM SCT100
     FM311800 VRB03KT P6SM BKN040
     FM010200 18005KT P6SM BKN100
     FM011000 00000KT P6SM BKN100=

USA.gov is the U.S. government's official web portal to all federal, state and local government web resources and services.